Yankeetown, Florida
Current Conditions -  °F | °C
As of 8:55 AM on Monday 24 Nov 2014 (Local Time) from KCGC Reporting Station
Overcast Overcast  
Wind Chill: 75°   Ceiling: 900
Heat Index: 75°   Visibility: 10mi
Dew Point: 72°   Wind: 3mph
Humidity: 89%   Direction: 180°S
Pressure: 29.96"   Gusts: NA
Location:  29.03°N, 82.72°W
Report Text: KCGC 241355Z AUTO 18003KT 10SM OVC009 24/22 A2996 RMK AO2
Loading
Personal Weather Stations






























Interactive Weather Map New forecast layout! Learn more

10-Day Weather Forecast

Advertisements
Track Severe Weather on mobile